Rosthern, Canada
Current Conditions -  °F | °C
As of 1:00 PM on Friday 21 Nov 2014 (Local Time) from CYXE Reporting Station
Light Rain Light Rain  
Wind Chill: 31°   Ceiling: 1000
Heat Index: 37°   Visibility: 15mi
Dew Point: 36°   Wind: 9mph
Humidity: 93%   Direction: 270°W
Pressure: 29.47"   Gusts: NA
Location:  52.65°N, 106.33°W
Report Text: CYXE 211900Z 27008KT 15SM -RA OVC010 03/02 A2947 RMK SC8 SLP005
Loading
Personal Weather Stations






























Interactive Weather Map New forecast layout! Learn more

10-Day Weather Forecast

Advertisements
Track Severe Weather on mobile